createdAt,value
2017-09-11T00:00:13.311Z,18.10
2017-09-11T00:02:40.987Z,20.00
2017-09-11T00:05:09.731Z,24.00
2017-09-11T00:07:37.383Z,20.17
2017-09-11T00:10:05.005Z,21.10
2017-09-11T00:12:32.643Z,19.97
2017-09-11T00:15:01.196Z,20.63
2017-09-11T00:17:28.828Z,24.57
2017-09-11T00:19:57.269Z,17.03
2017-09-11T00:22:24.889Z,22.13
2017-09-11T00:24:52.508Z,22.43
2017-09-11T00:27:20.141Z,18.93
2017-09-11T00:29:47.800Z,20.97
2017-09-11T00:32:15.417Z,20.47
2017-09-11T00:34:43.812Z,23.03
2017-09-11T00:37:11.495Z,20.27
2017-09-11T00:39:39.150Z,18.40
2017-09-11T00:42:06.972Z,21.10
2017-09-11T00:44:34.628Z,15.80
2017-09-11T00:47:02.273Z,18.83
2017-09-11T00:49:29.941Z,17.50
2017-09-11T00:51:57.606Z,17.93
2017-09-11T00:54:25.261Z,21.37
2017-09-11T00:56:52.943Z,20.00
2017-09-11T00:59:20.568Z,16.53
2017-09-11T01:01:48.189Z,21.47
2017-09-11T01:04:16.612Z,20.50
2017-09-11T01:06:44.233Z,17.23
2017-09-11T01:09:11.998Z,22.23
2017-09-11T01:11:40.445Z,20.30
2017-09-11T01:14:08.041Z,19.00
2017-09-11T01:16:35.660Z,16.63
2017-09-11T01:19:03.345Z,18.23
2017-09-11T01:21:31.061Z,24.93
2017-09-11T01:23:58.732Z,17.40
2017-09-11T01:26:26.409Z,20.13
2017-09-11T01:28:54.570Z,17.03
2017-09-11T01:31:22.258Z,17.90
2017-09-11T01:33:50.517Z,19.63
2017-09-11T01:36:18.131Z,24.57
2017-09-11T01:38:46.531Z,22.53
2017-09-11T01:41:14.170Z,21.67
2017-09-11T01:43:41.802Z,24.27
2017-09-11T01:46:09.490Z,19.23
2017-09-11T01:48:37.113Z,21.10
2017-09-11T01:51:04.732Z,21.20
2017-09-11T01:53:33.155Z,19.87
2017-09-11T01:56:00.753Z,21.43
2017-09-11T01:58:28.413Z,20.63
2017-09-11T02:00:56.127Z,26.23
2017-09-11T02:03:23.770Z,25.37
2017-09-11T02:05:51.404Z,25.03
2017-09-11T02:08:19.071Z,23.60
2017-09-11T02:10:46.698Z,25.70
2017-09-11T02:13:14.311Z,25.03
2017-09-11T02:15:42.715Z,30.13
2017-09-11T02:18:10.345Z,27.67
2017-09-11T02:20:37.990Z,22.67
2017-09-11T02:23:05.653Z,27.90
2017-09-11T02:25:33.658Z,31.53
2017-09-11T02:28:01.704Z,28.37
2017-09-11T02:30:29.920Z,27.67
2017-09-11T02:32:57.548Z,35.23
2017-09-11T02:35:25.211Z,31.30
2017-09-11T02:37:52.856Z,27.37
2017-09-11T02:40:20.486Z,25.17
2017-09-11T02:42:48.148Z,26.63
2017-09-11T02:45:15.784Z,28.90
2017-09-11T02:47:43.439Z,28.93
2017-09-11T02:50:11.172Z,24.83
2017-09-11T02:52:39.056Z,25.63
2017-09-11T02:55:06.734Z,21.97
2017-09-11T02:57:34.842Z,27.27
2017-09-11T03:00:05.304Z,34.10
2017-09-11T03:02:32.925Z,26.53
2017-09-11T03:05:00.563Z,29.63
2017-09-11T03:07:28.284Z,27.63
2017-09-11T03:09:55.929Z,30.90
2017-09-11T03:12:23.569Z,31.40
2017-09-11T03:14:51.185Z,30.37
2017-09-11T03:17:19.596Z,26.37
2017-09-11T03:19:47.247Z,31.43
2017-09-11T03:22:14.887Z,27.37
2017-09-11T03:24:42.490Z,31.83
2017-09-11T03:27:10.312Z,34.70
2017-09-11T03:29:37.958Z,31.80
2017-09-11T03:32:05.747Z,37.90
2017-09-11T03:34:33.404Z,31.77
2017-09-11T03:37:01.053Z,27.77
2017-09-11T03:39:28.672Z,32.37
2017-09-11T03:41:56.299Z,27.73
2017-09-11T03:44:23.957Z,28.07
2017-09-11T03:46:52.332Z,27.00
2017-09-11T03:49:19.932Z,31.70
2017-09-11T03:51:47.560Z,27.97
2017-09-11T03:54:15.247Z,31.90
2017-09-11T03:56:42.858Z,28.80
2017-09-11T03:59:10.469Z,26.87
2017-09-11T04:01:38.104Z,29.23
2017-09-11T04:04:05.719Z,32.70
2017-09-11T04:06:33.422Z,41.50
2017-09-11T04:09:01.055Z,36.50
2017-09-11T04:11:28.687Z,41.30
2017-09-11T04:13:56.300Z,40.90
2017-09-11T04:16:23.954Z,39.67
2017-09-11T04:18:51.568Z,48.43
2017-09-11T04:21:19.182Z,38.03
2017-09-11T04:23:46.828Z,35.87
2017-09-11T04:26:14.439Z,39.70
2017-09-11T04:28:42.053Z,43.80
2017-09-11T04:31:09.751Z,45.73
2017-09-11T04:33:38.164Z,46.93
2017-09-11T04:36:05.832Z,44.47
2017-09-11T04:38:33.473Z,43.20
2017-09-11T04:41:01.091Z,47.40
2017-09-11T04:43:28.801Z,44.10
2017-09-11T04:45:56.449Z,53.40
2017-09-11T04:48:24.096Z,48.30
2017-09-11T04:50:51.747Z,42.60
2017-09-11T04:53:19.366Z,39.83
2017-09-11T04:55:47.015Z,39.53
2017-09-11T04:58:14.773Z,40.63
2017-09-11T05:00:43.159Z,42.13
2017-09-11T05:03:10.805Z,43.87
2017-09-11T05:05:38.472Z,42.07
2017-09-11T05:08:06.880Z,40.23
2017-09-11T05:10:34.545Z,40.00
2017-09-11T05:13:02.182Z,33.77
2017-09-11T05:15:29.835Z,33.93
2017-09-11T05:17:57.463Z,36.20
2017-09-11T05:20:25.091Z,35.93
2017-09-11T05:22:52.740Z,32.50
2017-09-11T05:25:20.388Z,28.93
2017-09-11T05:27:48.788Z,25.70
2017-09-11T05:30:16.427Z,24.20
2017-09-11T05:32:44.048Z,29.03
2017-09-11T05:35:11.744Z,32.23
2017-09-11T05:37:39.380Z,37.63
2017-09-11T05:40:07.018Z,39.27
2017-09-11T05:42:34.645Z,36.00
2017-09-11T05:45:03.255Z,38.33
2017-09-11T05:47:30.887Z,43.67
2017-09-11T05:49:58.598Z,30.90
2017-09-11T05:52:26.207Z,35.50
2017-09-11T05:54:53.857Z,32.63
2017-09-11T05:57:21.543Z,32.50
2017-09-11T05:59:49.220Z,31.47
2017-09-11T06:02:16.830Z,39.20
2017-09-11T06:04:44.513Z,38.87
2017-09-11T06:07:12.122Z,30.27
2017-09-11T06:09:39.746Z,32.50
2017-09-11T06:12:08.160Z,35.43
2017-09-11T06:14:35.785Z,30.40
2017-09-11T06:17:03.422Z,36.30
2017-09-11T06:19:31.169Z,29.23
2017-09-11T06:21:58.794Z,27.17
2017-09-11T06:24:26.481Z,29.50
2017-09-11T06:26:54.124Z,26.67
2017-09-11T06:29:21.841Z,32.67
2017-09-11T06:31:51.797Z,28.30
2017-09-11T06:34:19.534Z,31.43
2017-09-11T06:36:47.172Z,32.70
2017-09-11T06:39:14.779Z,33.17
2017-09-11T06:41:43.188Z,28.27
2017-09-11T06:44:10.864Z,34.53
2017-09-11T06:46:38.461Z,42.93
2017-09-11T06:49:07.730Z,33.30
2017-09-11T06:51:35.357Z,28.63
2017-09-11T06:54:03.865Z,37.87
2017-09-11T06:56:31.495Z,38.27
2017-09-11T06:58:59.909Z,27.97
2017-09-11T07:01:27.517Z,34.37
2017-09-11T07:03:55.160Z,31.13
2017-09-11T07:06:22.843Z,29.87
2017-09-11T07:08:50.465Z,31.80
2017-09-11T07:11:18.073Z,27.17
2017-09-11T07:13:45.721Z,27.63
2017-09-11T07:16:13.326Z,32.53
2017-09-11T07:18:40.988Z,30.10
2017-09-11T07:21:13.625Z,25.37
2017-09-11T07:23:41.262Z,25.37
2017-09-11T07:26:09.033Z,25.87
2017-09-11T07:28:36.688Z,25.70
2017-09-11T07:31:04.434Z,27.20
2017-09-11T07:33:32.129Z,29.33
2017-09-11T07:35:59.999Z,29.73
2017-09-11T07:38:27.650Z,28.87
2017-09-11T07:40:55.260Z,23.40
2017-09-11T07:43:26.787Z,27.53
2017-09-11T07:45:54.396Z,28.83
2017-09-11T07:48:22.028Z,23.60
2017-09-11T07:50:49.664Z,31.30
2017-09-11T07:53:17.366Z,29.07
2017-09-11T07:55:45.067Z,27.70
2017-09-11T07:58:12.714Z,31.30
2017-09-11T08:00:40.382Z,27.20
2017-09-11T08:03:08.242Z,28.27
2017-09-11T08:05:35.917Z,27.77
2017-09-11T08:08:03.556Z,30.47
2017-09-11T08:10:31.188Z,22.90
2017-09-11T08:12:58.847Z,25.30
2017-09-11T08:15:26.483Z,25.77
2017-09-11T08:17:54.142Z,21.93
2017-09-11T08:20:21.792Z,25.73
2017-09-11T08:22:49.417Z,19.80
2017-09-11T08:25:17.092Z,19.93
2017-09-11T08:27:44.743Z,16.37
2017-09-11T08:30:12.496Z,17.27
2017-09-11T08:32:40.114Z,16.47
2017-09-11T08:35:07.773Z,16.53
2017-09-11T08:37:36.386Z,19.07
2017-09-11T08:40:04.079Z,11.23
2017-09-11T08:42:31.722Z,10.83
2017-09-11T08:44:59.342Z,11.07
2017-09-11T08:47:27.466Z,20.53
2017-09-11T08:49:55.136Z,16.50
2017-09-11T08:52:22.831Z,12.80
2017-09-11T08:54:50.444Z,16.23
2017-09-11T08:57:18.395Z,37.50
2017-09-11T08:59:46.029Z,25.53
2017-09-11T09:02:13.648Z,26.33
2017-09-11T09:04:41.303Z,23.50
2017-09-11T09:07:09.028Z,27.60
2017-09-11T09:09:36.730Z,21.70
2017-09-11T09:12:05.191Z,27.70
2017-09-11T09:14:32.858Z,24.90
2017-09-11T09:17:00.511Z,24.27
2017-09-11T09:19:28.224Z,21.50
2017-09-11T09:21:56.281Z,29.03
2017-09-11T09:24:23.949Z,27.73
2017-09-11T09:26:52.380Z,25.80
2017-09-11T09:29:20.077Z,29.33
2017-09-11T09:31:47.758Z,22.10
2017-09-11T09:34:16.311Z,22.30
2017-09-11T09:36:43.963Z,19.83
2017-09-11T09:39:11.656Z,21.00
2017-09-11T09:41:39.397Z,19.70
2017-09-11T09:44:07.118Z,22.23
2017-09-11T09:46:42.857Z,23.17
2017-09-11T09:49:11.322Z,20.07
2017-09-11T09:51:39.004Z,22.80
2017-09-11T09:54:06.778Z,23.20
2017-09-11T09:56:34.457Z,25.80
2017-09-11T09:59:02.115Z,23.73
2017-09-11T10:01:29.853Z,22.50
2017-09-11T10:03:57.519Z,20.87
2017-09-11T10:06:25.183Z,21.63
2017-09-11T10:08:52.836Z,22.00
2017-09-11T10:11:20.637Z,25.53
2017-09-11T10:13:49.342Z,21.30
2017-09-11T10:16:17.217Z,21.20
2017-09-11T10:18:45.141Z,18.63
2017-09-11T10:21:13.141Z,20.77
2017-09-11T10:23:41.357Z,22.13
2017-09-11T10:26:09.073Z,23.93
2017-09-11T10:28:36.812Z,19.17
2017-09-11T10:31:52.434Z,21.53
2017-09-11T10:34:20.117Z,16.77
2017-09-11T10:36:50.447Z,16.83
2017-09-11T10:39:21.226Z,18.20
2017-09-11T10:41:48.968Z,15.03
2017-09-11T10:44:16.593Z,14.00
2017-09-11T10:46:44.569Z,12.50
2017-09-11T10:49:13.338Z,14.87
2017-09-11T10:51:41.058Z,14.27
2017-09-11T10:54:08.775Z,14.20
2017-09-11T10:56:36.483Z,12.30
2017-09-11T10:59:05.015Z,17.33
2017-09-11T11:01:32.653Z,14.50
2017-09-11T11:04:01.086Z,17.03
2017-09-11T11:06:28.772Z,13.70
2017-09-11T11:08:57.236Z,15.90
2017-09-11T11:11:24.931Z,15.47
2017-09-11T11:13:52.622Z,13.90
2017-09-11T11:16:20.489Z,15.60
2017-09-11T11:18:48.243Z,19.80
2017-09-11T11:21:15.901Z,20.80
2017-09-11T11:23:43.633Z,23.60
2017-09-11T11:26:11.383Z,26.53
2017-09-11T11:28:40.185Z,19.47
2017-09-11T11:31:07.964Z,22.00
2017-09-11T11:33:35.700Z,24.10
2017-09-11T11:36:03.439Z,23.40
2017-09-11T11:38:31.170Z,25.40
2017-09-11T11:40:58.876Z,21.90
2017-09-11T11:43:27.054Z,20.73
2017-09-11T11:45:54.819Z,21.27
2017-09-11T11:48:24.066Z,20.83
2017-09-11T11:50:51.791Z,24.37
2017-09-11T11:53:19.896Z,22.73
2017-09-11T11:55:48.314Z,22.50
2017-09-11T11:58:15.967Z,27.60
2017-09-11T12:00:43.659Z,26.40
2017-09-11T12:03:11.572Z,25.53
2017-09-11T12:05:39.949Z,26.10
2017-09-11T12:08:07.570Z,25.20
2017-09-11T12:10:35.200Z,22.13
2017-09-11T12:13:03.021Z,26.80
2017-09-11T12:15:30.729Z,33.97
2017-09-11T12:17:58.494Z,30.90
2017-09-11T12:20:26.491Z,31.97
2017-09-11T12:22:54.392Z,36.13
2017-09-11T12:25:22.416Z,32.93
2017-09-11T12:27:50.990Z,36.70
2017-09-11T12:30:19.727Z,40.33
2017-09-11T12:32:47.400Z,41.20
2017-09-11T12:35:15.025Z,34.90
2017-09-11T12:37:42.704Z,45.50
2017-09-11T12:40:10.376Z,42.93
2017-09-11T12:42:38.004Z,39.70
2017-09-11T12:45:05.893Z,42.13
2017-09-11T12:47:34.355Z,41.10
2017-09-11T12:50:01.982Z,48.47
2017-09-11T12:52:29.669Z,55.87
2017-09-11T12:54:57.355Z,56.43
2017-09-11T12:57:24.989Z,55.40
2017-09-11T12:59:52.729Z,61.67
2017-09-11T13:02:21.135Z,54.50
2017-09-11T13:04:48.788Z,61.53
2017-09-11T13:07:16.442Z,55.17
2017-09-11T13:09:44.097Z,51.70
2017-09-11T13:12:11.751Z,60.30
2017-09-11T13:14:39.390Z,53.03
2017-09-11T13:17:07.025Z,57.90
2017-09-11T13:19:34.747Z,58.53
2017-09-11T13:22:02.440Z,69.13
2017-09-11T13:24:30.075Z,63.17
2017-09-11T13:27:17.597Z,59.07
2017-09-11T13:29:45.242Z,73.80
2017-09-11T13:32:12.951Z,71.17
2017-09-11T13:34:40.600Z,65.50
2017-09-11T13:37:08.241Z,74.43
2017-09-11T13:39:35.877Z,72.73
2017-09-11T13:42:03.563Z,76.17
2017-09-11T13:44:31.183Z,75.57
2017-09-11T13:46:59.585Z,64.53
2017-09-11T13:49:28.339Z,57.33
2017-09-11T13:51:55.962Z,58.47
2017-09-11T13:54:23.585Z,63.33
2017-09-11T13:56:51.277Z,65.60
2017-09-11T13:59:18.902Z,69.47
2017-09-11T14:01:46.516Z,60.20
2017-09-11T14:04:14.183Z,51.93
2017-09-11T14:06:41.817Z,58.00
2017-09-11T14:09:09.537Z,59.50
2017-09-11T14:11:37.405Z,64.33
2017-09-11T14:14:05.081Z,84.17
2017-09-11T14:16:32.767Z,71.73
2017-09-11T14:19:00.432Z,81.30
2017-09-11T14:21:28.057Z,86.90
2017-09-11T14:23:55.700Z,64.90
2017-09-11T14:26:23.401Z,37.40
2017-09-11T14:28:51.473Z,35.00
2017-09-11T14:31:19.112Z,38.77
2017-09-11T14:33:46.743Z,33.93
2017-09-11T14:36:14.564Z,39.13
2017-09-11T14:38:43.032Z,32.53
2017-09-11T14:41:11.447Z,31.43
2017-09-11T14:43:39.079Z,39.03
2017-09-11T14:46:06.740Z,33.60
2017-09-11T14:48:34.399Z,31.73
2017-09-11T14:51:02.018Z,32.17
2017-09-11T14:53:29.702Z,34.83
2017-09-11T14:55:57.375Z,35.73
2017-09-11T14:58:25.010Z,34.40
2017-09-11T15:00:53.463Z,33.37
2017-09-11T15:03:21.147Z,28.83
2017-09-11T15:05:48.783Z,27.77
2017-09-11T15:08:16.450Z,29.93
2017-09-11T15:10:44.122Z,28.47
2017-09-11T15:13:12.167Z,32.40
2017-09-11T15:15:39.802Z,33.00
2017-09-11T15:18:07.468Z,29.63
2017-09-11T15:20:35.090Z,33.10
2017-09-11T15:23:02.699Z,29.53
2017-09-11T15:25:30.375Z,32.33
2017-09-11T15:27:58.054Z,32.47
2017-09-11T15:30:25.665Z,32.03
2017-09-11T15:32:53.346Z,32.10
2017-09-11T15:35:21.001Z,31.53
2017-09-11T15:37:48.652Z,29.07
2017-09-11T15:40:17.066Z,32.03
2017-09-11T15:42:44.810Z,23.97
2017-09-11T15:45:13.507Z,22.73
2017-09-11T15:47:41.278Z,24.90
2017-09-11T15:50:08.928Z,27.87
2017-09-11T15:52:36.600Z,25.70
2017-09-11T15:55:04.249Z,27.00
2017-09-11T15:57:31.876Z,25.23
2017-09-11T15:59:59.514Z,32.33
2017-09-11T16:02:27.188Z,26.80
2017-09-11T16:04:54.792Z,31.17
2017-09-11T16:07:23.968Z,32.07
2017-09-11T16:09:52.403Z,21.13
2017-09-11T16:12:20.036Z,29.73
2017-09-11T16:14:47.693Z,30.77
2017-09-11T16:17:15.338Z,24.17
2017-09-11T16:19:42.943Z,23.07
2017-09-11T16:22:10.590Z,29.57
2017-09-11T16:24:38.265Z,29.13
2017-09-11T16:27:06.130Z,27.30
2017-09-11T16:29:33.811Z,29.50
2017-09-11T16:32:01.494Z,24.57
2017-09-11T16:34:29.166Z,28.87
2017-09-11T16:36:56.802Z,35.13
2017-09-11T16:39:24.572Z,46.17
2017-09-11T16:41:52.295Z,35.80
2017-09-11T16:44:20.942Z,31.57
2017-09-11T16:46:48.614Z,47.87
2017-09-11T16:49:16.298Z,39.53
2017-09-11T16:51:44.008Z,37.97
2017-09-11T16:54:11.855Z,36.83
2017-09-11T16:56:39.524Z,34.03
2017-09-11T16:59:07.209Z,35.60
2017-09-11T17:01:34.927Z,34.10
2017-09-11T17:04:02.617Z,39.33
2017-09-11T17:06:30.289Z,41.77
2017-09-11T17:08:57.968Z,47.53
2017-09-11T17:11:25.803Z,60.77
2017-09-11T17:13:53.430Z,38.87
2017-09-11T17:16:21.728Z,40.60
2017-09-11T17:18:49.374Z,42.70
2017-09-11T17:21:17.059Z,36.77
2017-09-11T17:23:44.695Z,30.03
2017-09-11T17:26:13.153Z,30.10
2017-09-11T17:28:40.817Z,19.53
2017-09-11T17:31:08.831Z,18.87
2017-09-11T17:33:36.539Z,22.30
2017-09-11T17:36:04.508Z,17.53
2017-09-11T17:38:32.422Z,22.37
2017-09-11T17:41:00.887Z,22.70
2017-09-11T17:43:30.847Z,21.13
2017-09-11T17:45:58.525Z,27.63
2017-09-11T17:48:26.179Z,39.90
2017-09-11T17:50:54.785Z,42.47
2017-09-11T17:53:23.769Z,33.50
2017-09-11T17:55:52.388Z,35.77
2017-09-11T17:58:20.013Z,28.23
2017-09-11T18:00:47.683Z,32.53
2017-09-11T18:03:15.383Z,34.70
2017-09-11T18:05:43.802Z,20.00
2017-09-11T18:08:11.536Z,23.30
2017-09-11T18:10:39.381Z,34.87
2017-09-11T18:13:07.309Z,32.47
2017-09-11T18:15:36.456Z,27.93
2017-09-11T18:18:06.306Z,25.03
2017-09-11T18:20:34.105Z,30.17
2017-09-11T18:23:01.853Z,23.27
2017-09-11T18:25:29.797Z,27.53
2017-09-11T18:27:57.463Z,25.33
2017-09-11T18:30:25.334Z,26.73
2017-09-11T18:32:52.995Z,31.07
2017-09-11T18:35:20.644Z,33.97
2017-09-11T18:37:48.328Z,29.97
2017-09-11T18:40:16.011Z,33.00
2017-09-11T18:42:43.690Z,37.47
2017-09-11T18:45:12.128Z,27.30
2017-09-11T18:50:13.771Z,18.20
2017-09-11T18:52:45.165Z,23.57
2017-09-11T18:55:17.879Z,25.10
2017-09-11T18:57:52.367Z,22.90
2017-09-11T19:00:23.114Z,26.87
2017-09-11T19:02:51.002Z,25.47
2017-09-11T19:05:18.838Z,21.93
2017-09-11T19:07:46.602Z,26.90
2017-09-11T19:10:14.285Z,26.37
2017-09-11T19:12:41.979Z,21.53
2017-09-11T19:15:09.811Z,18.33
2017-09-11T19:17:37.487Z,23.70
2017-09-11T19:20:05.120Z,19.03
2017-09-11T19:22:32.753Z,25.37
2017-09-11T19:25:01.164Z,26.40
2017-09-11T19:27:28.840Z,24.90
2017-09-11T19:29:56.579Z,29.80
2017-09-11T19:32:25.009Z,32.47
2017-09-11T19:34:52.720Z,27.33
2017-09-11T19:37:21.606Z,27.00
2017-09-11T19:39:49.329Z,24.80
2017-09-11T19:42:16.976Z,21.80
2017-09-11T19:44:44.619Z,28.40
2017-09-11T19:47:12.489Z,26.70
2017-09-11T19:49:40.238Z,26.67
2017-09-11T19:52:07.876Z,23.43
2017-09-11T19:54:36.310Z,18.87
2017-09-11T19:57:03.948Z,18.63
2017-09-11T19:59:31.596Z,22.80
2017-09-11T20:02:00.620Z,28.13
2017-09-11T20:04:28.248Z,32.47
2017-09-11T20:06:55.900Z,30.00
2017-09-11T20:09:23.592Z,26.50
2017-09-11T20:11:52.181Z,27.93
2017-09-11T20:14:21.095Z,26.87
2017-09-11T20:16:48.938Z,22.07
2017-09-11T20:19:18.570Z,25.40
2017-09-11T20:21:46.227Z,24.40
2017-09-11T20:24:13.981Z,19.10
2017-09-11T20:26:41.609Z,17.10
2017-09-11T20:29:09.353Z,16.57
2017-09-11T20:31:37.824Z,13.60
2017-09-11T20:34:05.443Z,22.50
2017-09-11T20:36:33.094Z,15.93
2017-09-11T20:39:00.762Z,16.57
2017-09-11T20:41:28.512Z,19.30
2017-09-11T20:43:56.994Z,19.23
2017-09-11T20:46:25.427Z,18.33
2017-09-11T20:48:53.073Z,17.03
2017-09-11T20:51:22.653Z,20.93
2017-09-11T20:53:51.130Z,17.40
2017-09-11T20:56:18.783Z,16.67
2017-09-11T20:58:46.515Z,12.73
2017-09-11T21:01:14.211Z,15.43
2017-09-11T21:03:42.147Z,17.43
2017-09-11T21:06:09.970Z,17.70
2017-09-11T21:08:37.618Z,16.37
2017-09-11T21:11:05.379Z,15.57
2017-09-11T21:13:33.032Z,14.60
2017-09-11T21:16:00.700Z,20.97
2017-09-11T21:18:29.099Z,16.10
2017-09-11T21:20:56.837Z,17.47
2017-09-11T21:23:25.732Z,19.33
2017-09-11T21:25:53.488Z,17.30
2017-09-11T21:28:21.228Z,15.80
2017-09-11T21:30:48.952Z,17.10
2017-09-11T21:33:17.603Z,16.50
2017-09-11T21:35:46.035Z,19.80
2017-09-11T21:38:13.780Z,17.10
2017-09-11T21:40:41.509Z,16.00
2017-09-11T21:43:09.501Z,16.63
2017-09-11T21:45:38.169Z,19.80
2017-09-11T21:48:07.867Z,24.60
2017-09-11T21:50:35.543Z,20.73
2017-09-11T21:53:03.266Z,25.83
2017-09-11T21:55:30.969Z,25.63
2017-09-11T21:57:58.643Z,23.00
2017-09-11T22:00:26.397Z,19.03
2017-09-11T22:02:54.871Z,21.73
2017-09-11T22:05:24.781Z,19.40
2017-09-11T22:07:53.288Z,19.37
2017-09-11T22:10:21.174Z,21.67
2017-09-11T22:12:54.042Z,15.90
2017-09-11T22:15:21.996Z,17.77
2017-09-11T22:17:50.620Z,18.30
2017-09-11T22:20:19.392Z,18.07
2017-09-11T22:22:48.838Z,20.60
2017-09-11T22:25:16.507Z,15.97
2017-09-11T22:27:44.828Z,16.30
2017-09-11T22:30:13.956Z,16.10
2017-09-11T22:32:42.062Z,16.57
2017-09-11T22:35:09.817Z,14.00
2017-09-11T22:37:37.496Z,11.03
2017-09-11T22:40:05.946Z,11.30
2017-09-11T22:42:33.728Z,13.63
2017-09-11T22:45:01.419Z,10.83
2017-09-11T22:47:29.194Z,14.20
2017-09-11T22:49:56.875Z,12.70
2017-09-11T22:52:24.544Z,11.40
2017-09-11T22:54:52.784Z,12.40
2017-09-11T22:57:20.442Z,17.43
2017-09-11T22:59:48.471Z,12.60
2017-09-11T23:02:16.095Z,9.60
2017-09-11T23:04:44.540Z,11.47
2017-09-11T23:07:12.159Z,9.00
2017-09-11T23:09:39.800Z,10.87
2017-09-11T23:12:08.273Z,12.43
2017-09-11T23:14:36.684Z,15.07
2017-09-11T23:17:04.366Z,14.50
2017-09-11T23:19:32.010Z,11.43
2017-09-11T23:21:59.624Z,17.93
2017-09-11T23:24:27.254Z,17.57
2017-09-11T23:26:54.918Z,13.67
2017-09-11T23:29:22.597Z,9.70
2017-09-11T23:31:50.227Z,13.17
2017-09-11T23:34:17.881Z,20.83
2017-09-11T23:36:45.541Z,17.17
2017-09-11T23:39:13.171Z,14.87
2017-09-11T23:41:40.816Z,14.13
2017-09-11T23:44:08.455Z,12.73
2017-09-11T23:46:36.090Z,18.37
2017-09-11T23:49:03.766Z,21.27
2017-09-11T23:51:31.486Z,14.53
2017-09-11T23:53:59.091Z,14.80
2017-09-11T23:56:26.803Z,9.37
2017-09-11T23:58:54.485Z,11.80
